Time;durP1;ratioP1;P1;durP2;ratioP2;P2;SDS_P1;SDS_P2;PMS_P1;PMS_P2;Temp;Humidity;BMP_temperature;BMP_pressure;BME280_temperature;BME280_humidity;BME280_pressure;Samples;Min_cycle;Max_cycle;Signal;HPM_P1;HPM_P2
2023/05/08 00:01:51;;;;;;;7.55;3.38;;;14.50;99.90;;;;;;5081501;28;20165;-73
2023/05/08 00:04:19;;;;;;;5.93;4.03;;;14.50;99.90;;;;;;5075354;28;20028;-74
2023/05/08 00:06:45;;;;;;;7.57;3.40;;;14.50;99.90;;;;;;5082896;28;20020;-73
2023/05/08 00:09:11;;;;;;;5.68;3.70;;;14.50;99.90;;;;;;5071547;28;20062;-73
2023/05/08 00:11:37;;;;;;;6.88;3.50;;;14.40;99.90;;;;;;5074487;28;20412;-73
2023/05/08 00:14:03;;;;;;;9.05;3.90;;;14.40;99.90;;;;;;5077924;28;20032;-74
2023/05/08 00:16:29;;;;;;;6.05;3.65;;;14.50;99.90;;;;;;5072538;28;20031;-74
2023/05/08 00:18:55;;;;;;;6.53;3.08;;;14.50;99.90;;;;;;5072675;28;20114;-74
2023/05/08 00:21:20;;;;;;;8.20;3.70;;;14.40;99.90;;;;;;5075429;28;20115;-74
2023/05/08 00:23:46;;;;;;;6.55;2.90;;;14.40;99.90;;;;;;5076124;28;20033;-73
2023/05/08 00:26:11;;;;;;;7.25;3.85;;;14.50;99.90;;;;;;5078916;28;20020;-74
2023/05/08 00:28:37;;;;;;;6.95;3.60;;;14.60;99.90;;;;;;5077505;28;20560;-73
2023/05/08 00:31:03;;;;;;;6.43;3.35;;;14.40;99.90;;;;;;5075109;28;20029;-74
2023/05/08 00:33:29;;;;;;;4.75;3.15;;;14.50;99.90;;;;;;5073463;28;20379;-74
2023/05/08 00:36:01;;;;;;;6.47;3.45;;;14.50;99.90;;;;;;5082329;28;20112;-74
2023/05/08 00:38:30;;;;;;;6.90;3.15;;;14.60;99.90;;;;;;5076315;28;20425;-74
2023/05/08 00:40:55;;;;;;;6.55;3.50;;;14.50;99.90;;;;;;5078290;28;20482;-74
2023/05/08 00:43:24;;;;;;;6.13;4.15;;;14.60;99.90;;;;;;5087269;28;20060;-73
2023/05/08 00:45:50;;;;;;;6.32;3.65;;;14.40;99.90;;;;;;5083183;28;20043;-74
2023/05/08 00:48:17;;;;;;;9.82;3.67;;;14.40;99.90;;;;;;5082716;28;20032;-73
2023/05/08 00:50:42;;;;;;;5.93;3.47;;;14.40;99.90;;;;;;5081727;28;20036;-74
2023/05/08 00:53:10;;;;;;;5.40;3.63;;;14.40;99.90;;;;;;5074802;28;20017;-74
2023/05/08 00:55:37;;;;;;;6.82;3.20;;;14.40;99.90;;;;;;5080150;28;20122;-74
2023/05/08 00:58:03;;;;;;;7.20;3.60;;;14.40;99.90;;;;;;5088954;28;20020;-73
2023/05/08 01:00:30;;;;;;;8.45;3.15;;;14.50;99.90;;;;;;5085725;28;20024;-74
2023/05/08 01:02:59;;;;;;;8.48;3.75;;;14.50;99.90;;;;;;5086330;28;20074;-74
2023/05/08 01:05:26;;;;;;;7.82;4.00;;;14.50;99.90;;;;;;5080886;28;20091;-73
2023/05/08 01:07:51;;;;;;;6.75;3.72;;;14.60;99.90;;;;;;5074455;28;20390;-74
2023/05/08 01:10:17;;;;;;;9.25;3.55;;;14.60;99.90;;;;;;5077377;28;20032;-73
2023/05/08 01:13:06;;;;;;;10.80;4.18;;;14.60;99.90;;;;;;5082377;28;20028;-73
2023/05/08 01:15:37;;;;;;;7.97;3.63;;;14.70;99.90;;;;;;5084840;28;20055;-74
2023/05/08 01:18:05;;;;;;;6.53;3.30;;;14.70;99.90;;;;;;5083942;28;20047;-73
2023/05/08 01:20:48;;;;;;;6.88;3.92;;;14.60;99.90;;;;;;5086062;28;20363;-73
2023/05/08 01:23:41;;;;;;;6.63;3.25;;;14.60;99.90;;;;;;5079489;28;20044;-74
2023/05/08 01:26:26;;;;;;;6.55;3.38;;;14.50;99.90;;;;;;5081071;28;20027;-73
2023/05/08 01:28:51;;;;;;;;;;;14.50;99.90;;;;;;5083591;28;20503;-74
2023/05/08 01:31:42;;;;;;;5.03;3.00;;;14.40;99.90;;;;;;5079175;28;19956;-73
2023/05/08 01:34:16;;;;;;;5.28;3.17;;;14.60;99.90;;;;;;5074474;28;20027;-73
2023/05/08 01:36:59;;;;;;;8.82;3.42;;;14.60;99.90;;;;;;5076642;28;20021;-73
2023/05/08 01:39:54;;;;;;;6.07;3.80;;;14.60;99.90;;;;;;5083836;28;20036;-73
2023/05/08 01:42:43;;;;;;;9.05;3.67;;;14.70;99.90;;;;;;5073165;28;20030;-73
2023/05/08 01:45:19;;;;;;;4.97;2.92;;;14.70;99.90;;;;;;5068321;28;20028;-73
2023/05/08 01:47:50;;;;;;;4.18;2.72;;;14.60;99.90;;;;;;5077150;28;20028;-73
2023/05/08 01:50:23;;;;;;;8.38;3.38;;;14.60;99.90;;;;;;5083235;28;20042;-73
2023/05/08 01:52:55;;;;;;;6.03;2.75;;;14.50;99.90;;;;;;5078027;28;20032;-73
2023/05/08 01:55:29;;;;;;;6.97;3.10;;;14.50;99.90;;;;;;5074419;28;20548;-73
2023/05/08 01:57:57;;;;;;;4.68;2.67;;;14.60;99.90;;;;;;5083087;28;20453;-73
2023/05/08 02:00:27;;;;;;;4.50;2.58;;;14.50;99.90;;;;;;5073673;28;20035;-73
2023/05/08 02:02:54;;;;;;;4.90;2.97;;;14.60;99.90;;;;;;5079457;28;20044;-73
2023/05/08 02:05:21;;;;;;;6.43;2.92;;;14.50;99.90;;;;;;5081071;28;20036;-74
2023/05/08 02:07:48;;;;;;;5.97;2.60;;;14.40;99.90;;;;;;5077329;28;20028;-73
2023/05/08 02:10:16;;;;;;;3.90;2.50;;;14.40;99.90;;;;;;5085303;28;20052;-73
2023/05/08 02:12:43;;;;;;;7.68;2.50;;;14.40;99.90;;;;;;5083581;28;20039;-73
2023/05/08 02:15:12;;;;;;;6.95;2.70;;;14.40;99.90;;;;;;5076792;28;20021;-73
2023/05/08 02:17:39;;;;;;;5.50;3.40;;;14.70;99.90;;;;;;5076867;28;20549;-73
2023/05/08 02:20:06;;;;;;;5.88;3.78;;;14.80;99.90;;;;;;5085318;28;20028;-73
2023/05/08 02:22:33;;;;;;;6.13;3.17;;;14.80;99.90;;;;;;5081580;28;20040;-73
2023/05/08 02:25:00;;;;;;;6.13;3.45;;;14.80;99.90;;;;;;5080097;28;20029;-73
2023/05/08 02:27:28;;;;;;;6.20;3.58;;;14.80;99.90;;;;;;5075785;28;20032;-73
2023/05/08 02:29:55;;;;;;;7.15;3.33;;;14.70;99.90;;;;;;5079306;28;20024;-73
2023/05/08 02:32:23;;;;;;;4.55;2.92;;;14.70;99.90;;;;;;5078912;28;20028;-73
2023/05/08 02:34:51;;;;;;;5.63;2.75;;;14.60;99.90;;;;;;5072987;28;20386;-73
2023/05/08 02:37:20;;;;;;;5.97;2.55;;;14.60;99.90;;;;;;5080278;28;20032;-73
2023/05/08 02:39:48;;;;;;;5.45;3.13;;;14.70;99.90;;;;;;5075977;28;20035;-73
2023/05/08 02:42:14;;;;;;;5.45;2.60;;;14.60;99.90;;;;;;5075165;28;20123;-73
2023/05/08 02:44:40;;;;;;;5.38;2.83;;;14.60;99.90;;;;;;5083335;28;20024;-73
2023/05/08 02:47:20;;;;;;;4.35;2.72;;;14.60;99.90;;;;;;5078893;28;20098;-73
2023/05/08 02:49:59;;;;;;;4.43;2.72;;;14.60;99.90;;;;;;5081177;28;20105;-73
2023/05/08 02:52:28;;;;;;;5.85;2.80;;;14.70;99.90;;;;;;5076021;28;20099;-73
2023/05/08 02:54:57;;;;;;;4.95;2.95;;;14.60;99.90;;;;;;5075253;28;20017;-73
2023/05/08 02:57:49;;;;;;;4.57;2.80;;;14.70;99.90;;;;;;5074099;28;20033;-73
2023/05/08 03:00:31;;;;;;;5.75;2.97;;;14.60;99.90;;;;;;5073544;28;20052;-72
2023/05/08 03:03:12;;;;;;;4.88;3.08;;;14.40;99.90;;;;;;5071165;28;20056;-71
2023/05/08 03:05:41;;;;;;;5.75;3.50;;;14.50;99.90;;;;;;5069133;28;20081;-72
2023/05/08 03:08:14;;;;;;;6.25;3.85;;;14.60;99.90;;;;;;5072822;28;20024;-72
2023/05/08 03:10:42;;;;;;;8.02;4.05;;;14.60;99.90;;;;;;5068782;28;20029;-72
2023/05/08 03:13:10;;;;;;;7.28;3.58;;;14.60;99.90;;;;;;5076369;28;20043;-71
2023/05/08 03:15:46;;;;;;;6.05;3.80;;;14.60;99.90;;;;;;5070821;28;20067;-72
2023/05/08 03:18:18;;;;;;;5.85;4.20;;;14.60;99.90;;;;;;5070587;28;20028;-72
2023/05/08 03:20:51;;;;;;;5.18;3.10;;;14.60;99.90;;;;;;5075358;28;20074;-72
2023/05/08 03:23:19;;;;;;;6.03;3.35;;;14.50;99.90;;;;;;5076434;28;20035;-72
2023/05/08 03:25:45;;;;;;;5.38;3.60;;;14.30;99.90;;;;;;5077137;28;20036;-72
2023/05/08 03:28:12;;;;;;;7.97;2.80;;;14.40;99.90;;;;;;5071725;28;20032;-72
2023/05/08 03:30:40;;;;;;;5.82;3.63;;;14.40;99.90;;;;;;5069455;28;20039;-72
2023/05/08 03:33:07;;;;;;;8.60;2.60;;;14.30;99.90;;;;;;5067446;28;20032;-72
2023/05/08 03:35:36;;;;;;;6.95;3.15;;;14.30;99.90;;;;;;5068215;28;20629;-72
2023/05/08 03:38:05;;;;;;;5.95;3.10;;;14.30;99.90;;;;;;5073793;28;20107;-72
2023/05/08 03:40:41;;;;;;;7.43;3.15;;;14.40;99.90;;;;;;5073080;28;20028;-71
2023/05/08 03:43:07;;;;;;;5.63;3.13;;;14.40;99.90;;;;;;5074534;28;20097;-72
2023/05/08 03:45:38;;;;;;;6.90;3.47;;;14.40;99.90;;;;;;5071188;28;20115;-72
2023/05/08 03:48:04;;;;;;;8.23;5.13;;;14.40;99.90;;;;;;5077288;28;20031;-72
2023/05/08 03:50:31;;;;;;;5.15;3.17;;;14.50;99.90;;;;;;5071805;28;20024;-71
2023/05/08 03:53:00;;;;;;;5.03;2.92;;;14.40;99.90;;;;;;5070612;28;20032;-72
2023/05/08 03:55:26;;;;;;;3.95;2.60;;;14.40;99.90;;;;;;5073955;28;20027;-71
2023/05/08 03:58:13;;;;;;;3.72;2.17;;;14.20;99.90;;;;;;5074473;28;20032;-73
2023/05/08 04:00:57;;;;;;;5.25;3.05;;;14.10;99.90;;;;;;5075434;28;20024;-73
2023/05/08 04:03:58;;;;;;;3.78;1.83;;;14.20;99.90;;;;;;5070226;28;20497;-73
2023/05/08 04:06:42;;;;;;;4.70;2.35;;;14.30;99.90;;;;;;5051253;28;20037;-73
2023/05/08 04:09:17;;;;;;;4.35;2.17;;;14.20;99.90;;;;;;5072613;28;20029;-73
2023/05/08 04:12:07;;;;;;;4.55;1.90;;;14.20;99.90;;;;;;5066755;28;20054;-73
2023/05/08 04:14:48;;;;;;;3.38;1.83;;;14.40;99.90;;;;;;5072818;28;20025;-73
2023/05/08 04:17:21;;;;;;;4.25;2.25;;;14.40;99.90;;;;;;5077059;28;20421;-73
2023/05/08 04:19:54;;;;;;;4.45;2.53;;;14.30;99.90;;;;;;5079020;28;20396;-73
2023/05/08 04:22:24;;;;;;;4.50;2.50;;;14.30;99.90;;;;;;5083159;28;20075;-73
2023/05/08 04:24:52;;;;;;;5.57;3.00;;;14.50;99.90;;;;;;5083122;28;20105;-73
2023/05/08 04:27:19;;;;;;;4.38;2.63;;;14.60;99.90;;;;;;5076605;28;20028;-73
2023/05/08 04:29:45;;;;;;;4.20;2.50;;;14.70;99.90;;;;;;5073844;28;20032;-73
2023/05/08 04:32:11;;;;;;;5.03;2.80;;;14.50;99.90;;;;;;5079576;28;20032;-73
2023/05/08 04:34:37;;;;;;;6.10;2.42;;;14.40;99.90;;;;;;5074566;28;20040;-73
2023/05/08 04:37:05;;;;;;;3.85;2.30;;;14.20;99.90;;;;;;5075294;28;20103;-73
2023/05/08 04:39:30;;;;;;;4.18;2.17;;;14.30;99.90;;;;;;5076974;28;20529;-73
2023/05/08 04:42:01;;;;;;;4.75;2.10;;;14.30;99.90;;;;;;5073928;28;20127;-73
2023/05/08 04:44:28;;;;;;;3.20;1.98;;;14.40;99.90;;;;;;5079644;28;20504;-73
2023/05/08 04:46:53;;;;;;;3.70;2.50;;;14.40;99.90;;;;;;5075730;28;20123;-73
2023/05/08 04:49:19;;;;;;;5.25;2.88;;;14.30;99.90;;;;;;5078590;28;20565;-73
2023/05/08 04:51:45;;;;;;;4.40;2.70;;;14.40;99.90;;;;;;5078033;28;20122;-73
2023/05/08 04:54:10;;;;;;;7.88;2.80;;;14.50;99.90;;;;;;5077058;28;20021;-73
2023/05/08 04:56:36;;;;;;;5.00;2.60;;;14.30;99.90;;;;;;5076381;28;20029;-73
2023/05/08 04:59:01;;;;;;;4.47;2.90;;;14.30;99.90;;;;;;5074718;28;20032;-73
2023/05/08 05:01:27;;;;;;;5.32;2.50;;;14.30;99.90;;;;;;5069709;28;20072;-73
2023/05/08 05:03:53;;;;;;;6.03;3.08;;;14.40;99.90;;;;;;5070806;28;20036;-73
2023/05/08 05:06:18;;;;;;;4.60;3.05;;;14.50;99.90;;;;;;5072315;28;20028;-73
2023/05/08 05:08:44;;;;;;;7.13;3.05;;;14.60;99.90;;;;;;5078369;28;20036;-73
2023/05/08 05:11:10;;;;;;;5.00;2.85;;;14.60;99.90;;;;;;5078076;28;20020;-74
2023/05/08 05:13:36;;;;;;;3.80;2.50;;;14.70;99.90;;;;;;5077821;28;20495;-73
2023/05/08 05:16:01;;;;;;;4.28;3.05;;;14.70;99.90;;;;;;5072182;28;20039;-74
2023/05/08 05:18:27;;;;;;;4.57;2.53;;;14.80;99.90;;;;;;5078213;28;20032;-74
2023/05/08 05:20:52;;;;;;;6.10;3.35;;;14.80;99.90;;;;;;5079341;28;20115;-75
2023/05/08 05:23:18;;;;;;;4.20;2.60;;;14.80;99.90;;;;;;5071166;28;20078;-74
2023/05/08 05:25:44;;;;;;;10.25;3.20;;;14.60;99.90;;;;;;5081047;28;20055;-74
2023/05/08 05:28:09;;;;;;;7.32;3.63;;;14.70;99.90;;;;;;5078287;28;20094;-74
2023/05/08 05:30:35;;;;;;;4.25;2.75;;;14.80;99.90;;;;;;5075753;28;23067;-75
2023/05/08 05:33:01;;;;;;;5.65;2.75;;;14.70;99.90;;;;;;5073700;28;20025;-74
2023/05/08 05:35:26;;;;;;;5.40;2.80;;;14.60;99.90;;;;;;5078074;28;20335;-74
2023/05/08 05:37:52;;;;;;;5.50;2.78;;;14.60;99.90;;;;;;5076652;28;20548;-74
2023/05/08 05:40:19;;;;;;;4.85;2.70;;;14.60;99.90;;;;;;5074645;28;20474;-74
2023/05/08 05:42:48;;;;;;;4.45;2.72;;;14.70;99.90;;;;;;5071015;28;20127;-74
2023/05/08 05:45:14;;;;;;;5.97;2.65;;;14.70;99.90;;;;;;5077363;28;20039;-74
2023/05/08 05:47:49;;;;;;;5.95;3.08;;;14.80;99.90;;;;;;5073807;28;20509;-74
2023/05/08 05:50:17;;;;;;;4.32;2.45;;;15.00;99.90;;;;;;5069532;28;20040;-74
2023/05/08 05:52:43;;;;;;;5.10;2.83;;;15.00;99.90;;;;;;5076561;28;20028;-75
2023/05/08 05:55:08;;;;;;;4.90;3.05;;;15.00;99.90;;;;;;5069733;28;20157;-74
2023/05/08 05:57:34;;;;;;;6.75;3.15;;;14.90;99.90;;;;;;5074084;28;20031;-75
2023/05/08 06:00:00;;;;;;;4.80;2.88;;;15.00;99.90;;;;;;5080165;28;20039;-74
2023/05/08 06:02:25;;;;;;;5.07;3.00;;;15.00;99.90;;;;;;5071154;28;20894;-74
2023/05/08 06:04:51;;;;;;;5.15;3.40;;;15.00;99.90;;;;;;5070588;28;20032;-74
2023/05/08 06:07:17;;;;;;;5.30;3.55;;;15.00;99.90;;;;;;5076401;28;20024;-75
2023/05/08 06:09:43;;;;;;;5.60;3.55;;;15.00;99.90;;;;;;5070990;28;20101;-74
2023/05/08 06:12:09;;;;;;;4.97;3.20;;;15.00;99.90;;;;;;5068437;28;20550;-74
2023/05/08 06:14:34;;;;;;;9.27;3.20;;;15.10;99.90;;;;;;5077041;28;20028;-74
2023/05/08 06:17:00;;;;;;;5.28;3.10;;;15.10;99.90;;;;;;5065751;28;20047;-74
2023/05/08 06:19:27;;;;;;;4.88;3.10;;;15.10;99.90;;;;;;5067581;28;20036;-74
2023/05/08 06:21:53;;;;;;;6.30;3.28;;;15.10;99.90;;;;;;5071945;28;20039;-73
2023/05/08 06:24:18;;;;;;;6.95;2.97;;;15.20;99.90;;;;;;5068329;28;20032;-72
2023/05/08 06:26:45;;;;;;;4.75;3.08;;;15.20;99.90;;;;;;5075281;28;20105;-73
2023/05/08 06:29:11;;;;;;;5.13;3.40;;;15.20;99.90;;;;;;5074046;28;20023;-74
2023/05/08 06:31:37;;;;;;;6.20;3.83;;;15.30;99.90;;;;;;5067766;28;20036;-72
2023/05/08 06:34:03;;;;;;;5.72;3.45;;;15.30;99.90;;;;;;5075357;28;20031;-73
2023/05/08 06:36:29;;;;;;;6.65;3.25;;;15.30;99.90;;;;;;5076179;28;20073;-73
2023/05/08 06:38:55;;;;;;;4.82;2.70;;;15.30;99.90;;;;;;5069108;28;20494;-72
2023/05/08 06:41:20;;;;;;;5.03;3.13;;;15.40;99.90;;;;;;5069496;28;20051;-72
2023/05/08 06:43:46;;;;;;;5.93;3.30;;;15.40;99.90;;;;;;5068845;28;20028;-74
2023/05/08 06:46:12;;;;;;;5.40;3.33;;;15.30;99.90;;;;;;5073389;28;20032;-75
2023/05/08 06:48:37;;;;;;;8.38;3.28;;;15.30;99.90;;;;;;5073315;28;20476;-74
2023/05/08 06:51:03;;;;;;;5.43;2.95;;;15.30;99.90;;;;;;5070331;28;20032;-73
2023/05/08 06:53:29;;;;;;;9.65;3.70;;;15.40;99.90;;;;;;5068411;28;20092;-74
2023/05/08 06:55:56;;;;;;;6.13;3.40;;;15.50;99.90;;;;;;5074044;28;20469;-74
2023/05/08 06:58:22;;;;;;;5.93;3.53;;;15.60;99.90;;;;;;5072583;28;20473;-74
2023/05/08 07:00:48;;;;;;;7.55;4.22;;;15.70;99.90;;;;;;5069387;28;20032;-74
2023/05/08 07:03:14;;;;;;;7.50;4.35;;;15.70;99.90;;;;;;5068659;28;20041;-74
2023/05/08 07:05:40;;;;;;;6.88;4.68;;;15.70;99.90;;;;;;5071668;28;20137;-74
2023/05/08 07:08:06;;;;;;;8.77;5.00;;;15.70;99.90;;;;;;5065483;28;20029;-74
2023/05/08 07:10:32;;;;;;;6.35;4.63;;;15.60;99.90;;;;;;5072101;28;20036;-74
2023/05/08 07:12:57;;;;;;;9.65;5.43;;;15.50;99.90;;;;;;5070718;28;20025;-74
2023/05/08 07:15:23;;;;;;;6.40;5.00;;;15.60;99.90;;;;;;5069540;28;20039;-74
2023/05/08 07:17:49;;;;;;;14.65;5.53;;;15.70;99.90;;;;;;5070106;28;20086;-74
2023/05/08 07:20:15;;;;;;;8.05;5.18;;;15.70;99.90;;;;;;5070894;28;20029;-74
2023/05/08 07:22:41;;;;;;;9.30;5.38;;;15.80;99.90;;;;;;5069082;28;20051;-72
2023/05/08 07:25:07;;;;;;;6.97;5.30;;;16.10;99.90;;;;;;5064785;28;20028;-75
2023/05/08 07:27:33;;;;;;;8.20;6.45;;;16.10;99.90;;;;;;5066162;28;20035;-72
2023/05/08 07:30:02;;;;;;;9.18;6.57;;;16.20;99.90;;;;;;5071725;28;20040;-72
2023/05/08 07:32:30;;;;;;;13.70;8.30;;;16.30;99.90;;;;;;5072094;28;20103;-75
2023/05/08 07:34:55;;;;;;;9.77;8.77;;;16.40;99.90;;;;;;5067130;28;20067;-74
2023/05/08 07:37:21;;;;;;;12.32;7.90;;;16.20;99.90;;;;;;5069309;28;20118;-74
2023/05/08 07:39:47;;;;;;;13.52;9.05;;;16.30;99.90;;;;;;5064276;28;20029;-74
2023/05/08 07:42:13;;;;;;;11.73;8.95;;;16.20;99.90;;;;;;5076758;28;20732;-73
2023/05/08 07:44:38;;;;;;;9.55;8.10;;;16.20;99.90;;;;;;5069632;28;20391;-74
2023/05/08 07:47:04;;;;;;;10.48;8.25;;;16.30;99.90;;;;;;5067579;28;20024;-76
2023/05/08 07:49:30;;;;;;;9.85;7.90;;;16.60;99.90;;;;;;5068495;28;20051;-74
2023/05/08 07:51:56;;;;;;;10.13;6.93;;;17.00;99.90;;;;;;5076608;28;20742;-74
2023/05/08 07:54:21;;;;;;;8.18;6.78;;;17.10;99.90;;;;;;5069377;28;20032;-74
2023/05/08 07:56:47;;;;;;;7.88;6.32;;;17.30;99.90;;;;;;5074250;28;20036;-74
2023/05/08 07:59:12;;;;;;;9.07;7.63;;;17.30;99.90;;;;;;5072632;28;20024;-74
2023/05/08 08:01:41;;;;;;;9.13;7.65;;;17.20;99.90;;;;;;5071170;28;20515;-74
2023/05/08 08:04:06;;;;;;;9.45;8.38;;;17.00;99.90;;;;;;5073902;28;20039;-74
2023/05/08 08:06:32;;;;;;;10.90;7.95;;;17.00;99.90;;;;;;5073824;28;20029;-74
2023/05/08 08:08:58;;;;;;;11.38;8.30;;;17.00;99.90;;;;;;5067520;28;20052;-74
2023/05/08 08:11:23;;;;;;;9.13;6.72;;;17.00;99.90;;;;;;5073754;28;20063;-74
2023/05/08 08:13:49;;;;;;;8.50;6.88;;;16.90;99.90;;;;;;5066535;28;20028;-75
2023/05/08 08:16:15;;;;;;;10.70;6.03;;;16.90;99.90;;;;;;5075986;28;20047;-74
2023/05/08 08:18:41;;;;;;;9.00;5.82;;;17.10;99.90;;;;;;5070019;28;20032;-75
2023/05/08 08:21:07;;;;;;;7.10;5.00;;;17.20;99.90;;;;;;5067436;28;20032;-74
2023/05/08 08:23:33;;;;;;;7.15;4.22;;;17.40;99.90;;;;;;5060397;28;20032;-74
2023/05/08 08:25:58;;;;;;;6.47;4.47;;;17.20;99.90;;;;;;5072604;28;20020;-73
2023/05/08 08:28:24;;;;;;;6.45;4.47;;;17.40;99.90;;;;;;5071731;28;20602;-74
2023/05/08 08:30:50;;;;;;;5.03;3.58;;;17.60;99.90;;;;;;5074907;28;20415;-73
2023/05/08 08:33:15;;;;;;;6.38;4.13;;;17.70;99.90;;;;;;5067134;28;20024;-74
2023/05/08 08:35:41;;;;;;;5.55;3.28;;;17.80;99.90;;;;;;5066838;28;20078;-73
2023/05/08 08:38:07;;;;;;;10.13;4.95;;;18.00;99.90;;;;;;5069606;28;20028;-73
2023/05/08 08:40:38;;;;;;;5.85;3.92;;;18.20;99.90;;;;;;5069015;28;20028;-74
2023/05/08 08:43:04;;;;;;;7.20;3.60;;;18.10;99.90;;;;;;5067975;28;20036;-73
2023/05/08 08:45:30;;;;;;;5.15;3.28;;;18.10;99.90;;;;;;5074085;28;20077;-74
2023/05/08 08:48:02;;;;;;;5.68;3.22;;;18.20;99.90;;;;;;5077692;28;20033;-73
2023/05/08 08:50:33;;;;;;;5.70;3.17;;;18.20;99.90;;;;;;5068355;28;20067;-74
2023/05/08 08:53:09;;;;;;;6.38;4.15;;;18.10;99.90;;;;;;5077248;28;20449;-74
2023/05/08 08:55:42;;;;;;;6.40;3.92;;;18.30;99.90;;;;;;5063896;28;20076;-74
2023/05/08 08:58:23;;;;;;;5.47;3.75;;;18.50;99.90;;;;;;5075500;28;20024;-74
2023/05/08 09:00:49;;;;;;;4.65;3.13;;;18.60;99.90;;;;;;5077083;28;20032;-73
2023/05/08 09:03:15;;;;;;;5.00;3.80;;;18.50;99.90;;;;;;5080285;28;20063;-74
2023/05/08 09:05:44;;;;;;;6.10;3.88;;;18.70;99.90;;;;;;5072191;28;20107;-73
2023/05/08 09:08:11;;;;;;;6.95;3.90;;;18.70;99.90;;;;;;5070657;28;20039;-74
2023/05/08 09:10:37;;;;;;;6.18;4.43;;;18.60;99.90;;;;;;5080579;28;20060;-74
2023/05/08 09:13:03;;;;;;;8.02;4.28;;;18.60;99.90;;;;;;5074641;28;20517;-73
2023/05/08 09:15:33;;;;;;;5.75;4.00;;;18.50;99.90;;;;;;5082860;28;20036;-74
2023/05/08 09:18:01;;;;;;;5.80;3.47;;;18.30;99.90;;;;;;5078403;28;20040;-73
2023/05/08 09:20:27;;;;;;;7.60;4.22;;;18.40;99.90;;;;;;5079667;28;20055;-73
2023/05/08 09:22:53;;;;;;;6.00;4.28;;;18.20;99.90;;;;;;5076674;28;20164;-73
2023/05/08 09:25:19;;;;;;;5.28;4.00;;;18.20;99.90;;;;;;5079910;28;20507;-74
2023/05/08 09:27:45;;;;;;;7.80;3.95;;;18.30;99.90;;;;;;5068074;28;20040;-74
2023/05/08 09:30:13;;;;;;;6.88;4.28;;;18.30;99.90;;;;;;5069904;28;20137;-73
2023/05/08 09:32:41;;;;;;;13.13;4.30;;;18.20;99.90;;;;;;5074443;28;20540;-74
2023/05/08 09:35:08;;;;;;;5.85;4.32;;;18.40;99.90;;;;;;5071382;28;20028;-74
2023/05/08 09:37:38;;;;;;;6.65;4.72;;;18.40;99.90;;;;;;5076552;28;20028;-74
2023/05/08 09:40:13;;;;;;;9.20;4.65;;;18.40;99.90;;;;;;5072862;28;20069;-73
2023/05/08 09:42:39;;;;;;;6.35;4.57;;;18.50;99.90;;;;;;5076004;28;20066;-74
2023/05/08 09:45:05;;;;;;;6.65;4.35;;;18.30;99.90;;;;;;5075108;28;20482;-74
2023/05/08 09:47:31;;;;;;;9.00;4.60;;;18.50;99.90;;;;;;5073853;28;20465;-74
2023/05/08 09:49:58;;;;;;;6.85;4.22;;;18.60;99.90;;;;;;5078337;28;20035;-74
2023/05/08 09:52:23;;;;;;;6.25;4.35;;;18.80;99.90;;;;;;5074875;28;20024;-74
2023/05/08 09:55:08;;;;;;;8.35;4.57;;;18.60;99.90;;;;;;5081313;28;20134;-74
2023/05/08 09:57:38;;;;;;;6.93;4.38;;;18.70;99.90;;;;;;5080072;28;20043;-73
2023/05/08 10:00:08;;;;;;;6.45;4.15;;;18.90;99.90;;;;;;5071400;28;20074;-73
2023/05/08 10:02:52;;;;;;;6.63;3.40;;;19.00;99.90;;;;;;5073850;28;20047;-73
2023/05/08 10:05:26;;;;;;;6.28;3.28;;;18.80;99.90;;;;;;5069383;28;20062;-73
2023/05/08 10:07:52;;;;;;;4.88;2.55;;;18.80;99.90;;;;;;5077477;28;20029;-73
2023/05/08 10:10:29;;;;;;;4.57;2.38;;;18.70;99.90;;;;;;5070093;28;20024;-73
2023/05/08 10:12:56;;;;;;;8.98;3.13;;;18.80;99.90;;;;;;5074956;28;20031;-73
2023/05/08 10:15:24;;;;;;;5.90;3.20;;;19.00;99.90;;;;;;5073910;28;20024;-73
2023/05/08 10:17:59;;;;;;;9.90;4.13;;;19.10;99.90;;;;;;5076024;28;20146;-74
2023/05/08 10:20:28;;;;;;;4.88;3.25;;;19.10;99.90;;;;;;5076090;28;20032;-73
2023/05/08 10:22:55;;;;;;;5.10;3.10;;;19.20;99.90;;;;;;5072954;28;20040;-73
2023/05/08 10:25:22;;;;;;;6.03;3.15;;;19.10;99.90;;;;;;5074809;28;20087;-73
2023/05/08 10:27:59;;;;;;;4.63;3.08;;;19.20;99.90;;;;;;5067996;28;20025;-74
2023/05/08 10:30:26;;;;;;;5.43;2.80;;;19.10;99.90;;;;;;5073706;28;20032;-74
2023/05/08 10:32:57;;;;;;;4.85;3.22;;;19.30;99.90;;;;;;5083539;28;20035;-74
2023/05/08 10:35:23;;;;;;;4.55;3.00;;;19.20;99.90;;;;;;5073784;28;20016;-73
2023/05/08 10:37:50;;;;;;;6.00;3.25;;;19.20;99.90;;;;;;5071992;28;20394;-73
2023/05/08 10:40:17;;;;;;;5.30;2.75;;;19.30;99.90;;;;;;5073776;28;20028;-74
2023/05/08 10:42:43;;;;;;;4.90;2.90;;;19.20;99.90;;;;;;5070071;28;20036;-73
2023/05/08 10:45:10;;;;;;;4.07;2.80;;;19.20;99.90;;;;;;5076344;28;20028;-74
2023/05/08 10:48:04;;;;;;;4.88;2.92;;;19.20;99.90;;;;;;5070695;28;20562;-74
2023/05/08 10:50:56;;;;;;;8.93;3.65;;;19.20;99.90;;;;;;5070716;28;20081;-73
2023/05/08 10:53:37;;;;;;;8.82;3.13;;;19.20;99.90;;;;;;5075335;28;20028;-74
2023/05/08 10:56:04;;;;;;;6.20;3.10;;;19.00;99.90;;;;;;5076411;28;20391;-73
2023/05/08 10:58:39;;;;;;;5.47;3.00;;;19.00;99.90;;;;;;5074986;28;20392;-74
2023/05/08 11:01:08;;;;;;;4.97;2.90;;;18.90;99.90;;;;;;5072621;28;20161;-74
2023/05/08 11:03:49;;;;;;;5.97;3.10;;;18.80;99.90;;;;;;5072606;28;20036;-73
2023/05/08 11:06:15;;;;;;;6.80;3.00;;;18.70;99.90;;;;;;5069319;28;20179;-73
2023/05/08 11:08:53;;;;;;;6.20;3.20;;;18.70;99.90;;;;;;5070652;28;20544;-74
2023/05/08 11:11:32;;;;;;;5.43;3.22;;;18.70;99.90;;;;;;5070756;28;20051;-75
2023/05/08 11:14:07;;;;;;;5.78;3.40;;;18.60;99.90;;;;;;5075876;28;20107;-74
2023/05/08 11:17:00;;;;;;;5.00;3.25;;;18.50;99.90;;;;;;5068291;28;20036;-73
2023/05/08 11:19:27;;;;;;;5.22;2.65;;;18.50;99.90;;;;;;5070484;28;20067;-74
2023/05/08 11:22:14;;;;;;;6.82;3.40;;;18.60;99.90;;;;;;5071325;28;20040;-73
2023/05/08 11:25:00;;;;;;;4.90;2.75;;;18.60;99.90;;;;;;5076073;28;20055;-73
2023/05/08 11:27:38;;;;;;;4.38;2.53;;;18.60;99.90;;;;;;5059926;28;20071;-73
2023/05/08 11:30:22;;;;;;;3.75;2.33;;;18.70;99.90;;;;;;5074308;28;20047;-73
2023/05/08 11:33:03;;;;;;;6.10;2.90;;;18.60;99.90;;;;;;5069786;28;20238;-73
2023/05/08 11:35:57;;;;;;;5.13;2.70;;;18.50;99.90;;;;;;5067813;28;20028;-73
2023/05/08 11:38:27;;;;;;;3.80;2.43;;;18.60;99.90;;;;;;5075481;28;20032;-73
2023/05/08 11:40:58;;;;;;;4.47;2.88;;;18.70;99.90;;;;;;5065566;28;20112;-73
2023/05/08 11:43:27;;;;;;;5.22;3.13;;;18.60;99.90;;;;;;5067035;28;20486;-73
2023/05/08 11:45:53;;;;;;;4.47;3.00;;;18.60;99.90;;;;;;5065796;28;20032;-73
2023/05/08 11:48:19;;;;;;;6.93;3.17;;;18.60;99.90;;;;;;5066815;28;20071;-73
2023/05/08 11:50:46;;;;;;;6.03;2.90;;;18.50;99.90;;;;;;5064460;28;20039;-73
2023/05/08 11:53:12;;;;;;;3.90;2.65;;;18.50;99.90;;;;;;5063924;28;20027;-73
2023/05/08 11:55:39;;;;;;;4.18;2.90;;;18.50;99.90;;;;;;5066831;28;20029;-74
2023/05/08 11:58:11;;;;;;;6.00;2.92;;;18.40;99.90;;;;;;5069039;28;20457;-74
2023/05/08 12:00:43;;;;;;;5.45;2.40;;;18.40;99.90;;;;;;5069828;28;20107;-75
2023/05/08 12:03:12;;;;;;;5.28;2.92;;;18.50;99.90;;;;;;5069964;28;20178;-75
2023/05/08 12:05:38;;;;;;;7.50;2.60;;;18.50;99.90;;;;;;5074538;28;20028;-75
2023/05/08 12:08:06;;;;;;;4.55;2.60;;;18.50;99.90;;;;;;5072411;28;20032;-76
2023/05/08 12:10:31;;;;;;;3.90;2.35;;;18.50;99.90;;;;;;5065873;28;20028;-75
2023/05/08 12:12:57;;;;;;;5.07;2.28;;;18.60;99.90;;;;;;5069407;28;20028;-75
2023/05/08 12:15:23;;;;;;;4.43;2.47;;;18.60;99.90;;;;;;5064846;28;20047;-75
2023/05/08 12:18:00;;;;;;;4.07;2.15;;;18.60;99.90;;;;;;5065202;28;20085;-75
2023/05/08 12:20:26;;;;;;;4.80;2.35;;;18.70;99.90;;;;;;5074099;28;20110;-75
2023/05/08 12:22:52;;;;;;;4.82;2.75;;;18.60;99.90;;;;;;5067138;28;20085;-75
2023/05/08 12:25:18;;;;;;;3.45;1.63;;;18.70;99.90;;;;;;5068534;28;20024;-75
2023/05/08 12:27:46;;;;;;;5.13;2.75;;;18.60;99.90;;;;;;5069766;28;20029;-74
2023/05/08 12:30:13;;;;;;;2.47;1.67;;;18.50;99.90;;;;;;5064944;28;20055;-74
2023/05/08 12:32:42;;;;;;;5.00;1.95;;;18.30;99.90;;;;;;5069074;28;20420;-75
2023/05/08 12:35:10;;;;;;;2.28;1.30;;;18.50;99.90;;;;;;5078641;28;20107;-74
2023/05/08 12:37:36;;;;;;;3.40;1.52;;;18.60;99.90;;;;;;5077378;28;20024;-75
2023/05/08 12:40:03;;;;;;;3.47;1.40;;;18.70;99.90;;;;;;5076915;28;20032;-75
2023/05/08 12:42:45;;;;;;;4.05;1.30;;;18.80;99.90;;;;;;5075955;28;20572;-75
2023/05/08 12:45:22;;;;;;;2.72;1.20;;;18.70;99.90;;;;;;5072865;28;20028;-75
2023/05/08 12:47:49;;;;;;;4.25;1.65;;;18.70;99.90;;;;;;5073596;28;20059;-74
2023/05/08 12:50:19;;;;;;;2.65;1.48;;;18.80;99.90;;;;;;5068913;28;20161;-76
2023/05/08 12:52:46;;;;;;;3.63;1.60;;;18.90;99.90;;;;;;5070937;28;20493;-75
2023/05/08 12:55:28;;;;;;;3.65;1.75;;;19.10;99.90;;;;;;5069411;28;20067;-76
2023/05/08 12:58:24;;;;;;;6.88;2.00;;;19.20;99.90;;;;;;5077234;28;20028;-76